Glencoe, Kentucky
Current Conditions -  °F | °C
As of 9:52 AM on Thursday 30 Oct 2014 (Local Time) from KCVG Reporting Station
Clear Clear  
Wind Chill: 44°   Ceiling: Unl
Heat Index: 46°   Visibility: 10mi
Dew Point: 36°   Wind: 5mph
Humidity: 68%   Direction: 360°N
Pressure: 30.17"   Gusts: NA
Location:  38.71°N, 84.82°W
Report Text: KCVG 301352Z 36004KT 10SM CLR 08/02 A3017 RMK AO2 SLP217 T00780022 VISNO 36R $
Loading
Personal Weather Stations






























Interactive Weather Map
Tropical Storm Tracking
New forecast layout! Learn more

10-Day Weather Forecast

Advertisements
Track Severe Weather on mobile